Time;durP1;ratioP1;P1;durP2;ratioP2;P2;SDS_P1;SDS_P2;PMS_P1;PMS_P2;Temp;Humidity;BMP_temperature;BMP_pressure;BME280_temperature;BME280_humidity;BME280_pressure;Samples;Min_cycle;Max_cycle;Signal;HPM_P1;HPM_P2
2024/02/26 00:00:00;;;;;;;13.65;8.63;;;;;;;;;;4992131;28;20439;-75
2024/02/26 00:02:25;;;;;;;14.52;8.68;;;;;;;;;;4992002;28;20054;-74
2024/02/26 00:04:51;;;;;;;15.38;8.88;;;;;;;;;;4991757;28;20034;-75
2024/02/26 00:07:16;;;;;;;16.45;10.32;;;;;;;;;;4992191;28;20030;-75
2024/02/26 00:09:41;;;;;;;13.07;8.40;;;;;;;;;;4991890;28;20081;-75
2024/02/26 00:12:06;;;;;;;13.38;9.00;;;;;;;;;;4991649;28;20045;-75
2024/02/26 00:14:32;;;;;;;15.07;8.77;;;;;;;;;;4991217;28;20105;-75
2024/02/26 00:16:57;;;;;;;15.25;9.75;;;;;;;;;;4992013;28;20038;-75
2024/02/26 00:19:22;;;;;;;13.52;9.02;;;;;;;;;;4991895;28;20104;-75
2024/02/26 00:21:47;;;;;;;12.00;8.05;;;;;;;;;;4990789;28;20069;-75
2024/02/26 00:24:13;;;;;;;30.75;8.77;;;;;;;;;;4991691;28;20108;-75
2024/02/26 00:26:38;;;;;;;14.38;8.85;;;;;;;;;;4991822;28;20034;-75
2024/02/26 00:29:03;;;;;;;11.57;7.97;;;;;;;;;;4991753;28;20038;-75
2024/02/26 00:31:28;;;;;;;15.27;9.52;;;;;;;;;;4994927;28;20069;-76
2024/02/26 00:33:53;;;;;;;14.90;9.95;;;;;;;;;;4991469;28;20038;-75
2024/02/26 00:36:19;;;;;;;15.43;9.05;;;;;;;;;;4991689;28;20078;-75
2024/02/26 00:38:46;;;;;;;13.93;9.25;;;;;;;;;;4990173;28;20073;-75
2024/02/26 00:41:11;;;;;;;15.25;9.70;;;;;;;;;;4991162;28;20395;-75
2024/02/26 00:43:39;;;;;;;14.23;9.10;;;;;;;;;;4991099;28;20038;-75
2024/02/26 00:46:04;;;;;;;14.52;8.68;;;;;;;;;;4991567;28;20034;-75
2024/02/26 00:48:29;;;;;;;13.50;8.18;;;;;;;;;;4991204;28;20403;-75
2024/02/26 00:50:54;;;;;;;11.35;8.18;;;;;;;;;;4990649;28;20031;-75
2024/02/26 00:53:19;;;;;;;15.80;9.05;;;;;;;;;;4991375;28;20079;-75
2024/02/26 00:55:45;;;;;;;17.40;10.18;;;;;;;;;;4990990;28;20033;-75
2024/02/26 00:58:10;;;;;;;16.80;10.05;;;;;;;;;;4987293;28;20054;-75
2024/02/26 01:00:35;;;;;;;14.75;9.20;;;;;;;;;;4985536;28;20031;-74
2024/02/26 01:03:03;;;;;;;16.58;9.98;;;;;;;;;;4991077;28;20054;-75
2024/02/26 01:05:28;;;;;;;14.65;8.38;;;;;;;;;;4990792;28;20066;-77
2024/02/26 01:07:53;;;;;;;15.60;10.18;;;;;;;;;;4989848;28;20057;-74
2024/02/26 01:10:18;;;;;;;15.25;9.35;;;;;;;;;;4989710;28;20108;-75
2024/02/26 01:12:44;;;;;;;15.57;9.80;;;;;;;;;;4993726;28;20510;-75
2024/02/26 01:15:09;;;;;;;16.80;9.10;;;;;;;;;;4990788;28;20065;-75
2024/02/26 01:17:34;;;;;;;13.85;8.60;;;;;;;;;;4990358;28;20030;-75
2024/02/26 01:19:59;;;;;;;14.32;9.35;;;;;;;;;;4990668;28;20462;-75
2024/02/26 01:22:24;;;;;;;16.08;9.40;;;;;;;;;;4990182;28;20040;-75
2024/02/26 01:24:50;;;;;;;15.82;8.40;;;;;;;;;;4990445;28;20089;-75
2024/02/26 01:27:18;;;;;;;14.80;8.00;;;;;;;;;;4996155;28;20064;-75
2024/02/26 01:29:44;;;;;;;15.60;9.98;;;;;;;;;;4989415;28;20026;-75
2024/02/26 01:32:09;;;;;;;15.40;9.98;;;;;;;;;;4990409;28;20031;-75
2024/02/26 01:34:34;;;;;;;15.65;10.13;;;;;;;;;;4990401;28;20030;-75
2024/02/26 01:36:59;;;;;;;17.35;9.27;;;;;;;;;;4990739;28;20038;-75
2024/02/26 01:39:25;;;;;;;14.30;9.05;;;;;;;;;;4990691;28;20065;-75
2024/02/26 01:41:50;;;;;;;13.07;9.15;;;;;;;;;;4991445;28;20038;-75
2024/02/26 01:44:15;;;;;;;15.55;9.55;;;;;;;;;;4990566;28;20038;-75
2024/02/26 01:46:40;;;;;;;15.75;9.43;;;;;;;;;;4990471;28;20042;-75
2024/02/26 01:49:06;;;;;;;17.00;9.65;;;;;;;;;;4990443;28;20042;-76
2024/02/26 01:51:32;;;;;;;14.60;8.55;;;;;;;;;;4989826;28;20023;-75
2024/02/26 01:53:57;;;;;;;18.30;11.45;;;;;;;;;;4990514;28;20558;-75
2024/02/26 01:56:28;;;;;;;14.82;9.95;;;;;;;;;;4990596;28;20034;-75
2024/02/26 01:58:53;;;;;;;15.43;9.93;;;;;;;;;;4990414;28;20414;-75
2024/02/26 02:01:18;;;;;;;16.58;11.05;;;;;;;;;;4990254;28;20117;-75
2024/02/26 02:03:44;;;;;;;19.15;11.27;;;;;;;;;;4990068;28;20125;-75
2024/02/26 02:06:10;;;;;;;14.48;9.35;;;;;;;;;;4990546;28;20042;-75
2024/02/26 02:08:35;;;;;;;16.42;10.82;;;;;;;;;;4989745;28;20042;-75
2024/02/26 02:11:00;;;;;;;17.35;10.48;;;;;;;;;;4989947;28;20026;-75
2024/02/26 02:13:26;;;;;;;18.17;11.05;;;;;;;;;;4990433;28;20054;-75
2024/02/26 02:15:51;;;;;;;17.58;10.55;;;;;;;;;;4989624;28;20037;-75
2024/02/26 02:18:16;;;;;;;15.40;10.20;;;;;;;;;;4990371;28;20097;-75
2024/02/26 02:20:41;;;;;;;16.40;11.25;;;;;;;;;;4989552;28;20042;-75
2024/02/26 02:23:07;;;;;;;21.35;11.88;;;;;;;;;;4990927;28;20039;-75
2024/02/26 02:25:32;;;;;;;18.48;11.88;;;;;;;;;;4993990;28;20030;-75
2024/02/26 02:27:57;;;;;;;18.92;11.23;;;;;;;;;;4990327;28;20061;-75
2024/02/26 02:30:27;;;;;;;15.32;10.18;;;;;;;;;;4993034;28;20042;-75
2024/02/26 02:32:53;;;;;;;14.88;9.45;;;;;;;;;;4993300;28;20113;-75
2024/02/26 02:35:18;;;;;;;18.95;12.02;;;;;;;;;;4993758;28;20105;-75
2024/02/26 02:37:43;;;;;;;19.52;10.90;;;;;;;;;;4993765;28;20062;-74
2024/02/26 02:40:08;;;;;;;20.80;12.18;;;;;;;;;;5004121;28;20069;-75
2024/02/26 02:42:33;;;;;;;19.50;11.57;;;;;;;;;;4993156;28;20034;-75
2024/02/26 02:44:59;;;;;;;17.17;11.52;;;;;;;;;;4993632;28;20073;-76
2024/02/26 02:47:24;;;;;;;18.45;11.82;;;;;;;;;;4993695;28;20037;-75
2024/02/26 02:49:49;;;;;;;19.75;12.95;;;;;;;;;;4990075;28;20117;-76
2024/02/26 02:52:14;;;;;;;25.08;14.40;;;;;;;;;;4993249;28;20064;-75
2024/02/26 02:54:41;;;;;;;20.85;13.82;;;;;;;;;;4993389;28;20072;-75
2024/02/26 02:57:07;;;;;;;20.77;13.77;;;;;;;;;;5005820;28;20046;-76
2024/02/26 02:59:32;;;;;;;22.35;14.57;;;;;;;;;;4993133;28;20034;-76
2024/02/26 03:01:57;;;;;;;21.50;14.15;;;;;;;;;;4993024;28;20045;-75
2024/02/26 03:04:22;;;;;;;20.10;13.38;;;;;;;;;;4993144;28;20030;-75
2024/02/26 03:06:47;;;;;;;19.80;14.00;;;;;;;;;;4995905;28;20538;-75
2024/02/26 03:09:13;;;;;;;21.88;13.50;;;;;;;;;;4993246;28;20495;-75
2024/02/26 03:11:38;;;;;;;21.48;13.82;;;;;;;;;;4988784;28;20490;-75
2024/02/26 03:14:04;;;;;;;20.50;12.52;;;;;;;;;;4993139;28;20034;-75
2024/02/26 03:16:30;;;;;;;28.83;17.58;;;;;;;;;;4995676;28;20027;-75
2024/02/26 03:18:55;;;;;;;29.67;19.05;;;;;;;;;;4992994;28;20066;-75
2024/02/26 03:21:20;;;;;;;36.65;22.17;;;;;;;;;;4996558;28;20038;-75
2024/02/26 03:23:45;;;;;;;38.78;22.00;;;;;;;;;;4992734;28;20042;-75
2024/02/26 03:26:14;;;;;;;33.08;20.80;;;;;;;;;;4993060;28;20750;-75
2024/02/26 03:28:39;;;;;;;32.88;20.42;;;;;;;;;;4992820;28;20483;-75
2024/02/26 03:31:04;;;;;;;32.90;20.02;;;;;;;;;;4992388;28;20030;-74
2024/02/26 03:33:30;;;;;;;40.00;23.42;;;;;;;;;;4992376;28;20085;-75
2024/02/26 03:35:55;;;;;;;35.17;20.13;;;;;;;;;;4992649;28;20045;-75
2024/02/26 03:38:20;;;;;;;32.45;20.73;;;;;;;;;;4992905;28;20141;-75
2024/02/26 03:40:45;;;;;;;36.92;21.55;;;;;;;;;;4991591;28;20507;-74
2024/02/26 03:43:10;;;;;;;37.30;22.05;;;;;;;;;;4992822;28;20117;-75
2024/02/26 03:45:36;;;;;;;27.95;17.98;;;;;;;;;;4992367;28;20034;-75
2024/02/26 03:48:01;;;;;;;26.33;17.30;;;;;;;;;;4996252;28;20506;-74
2024/02/26 03:50:26;;;;;;;25.35;16.42;;;;;;;;;;4992168;28;20034;-74
2024/02/26 03:52:51;;;;;;;30.08;18.55;;;;;;;;;;4991971;28;20066;-75
2024/02/26 03:55:20;;;;;;;31.70;20.58;;;;;;;;;;4992315;28;20494;-75
2024/02/26 03:57:46;;;;;;;32.83;20.65;;;;;;;;;;4992120;28;20022;-75
2024/02/26 04:00:11;;;;;;;27.02;17.35;;;;;;;;;;4992200;28;20034;-76
2024/02/26 04:02:37;;;;;;;25.75;16.05;;;;;;;;;;4991709;28;20022;-76
2024/02/26 04:05:03;;;;;;;21.63;13.82;;;;;;;;;;4992104;28;20025;-75
2024/02/26 04:07:28;;;;;;;23.00;14.43;;;;;;;;;;4989924;28;20372;-75
2024/02/26 04:09:53;;;;;;;19.15;12.50;;;;;;;;;;4991715;28;20529;-75
2024/02/26 04:12:18;;;;;;;20.73;13.18;;;;;;;;;;4991738;28;20057;-76
2024/02/26 04:14:44;;;;;;;18.17;11.55;;;;;;;;;;4991798;28;20057;-75
2024/02/26 04:17:10;;;;;;;17.83;12.25;;;;;;;;;;5002266;28;20442;-74
2024/02/26 04:19:36;;;;;;;19.05;13.10;;;;;;;;;;4991690;28;20447;-75
2024/02/26 04:22:01;;;;;;;23.27;14.68;;;;;;;;;;4991655;28;20069;-74
2024/02/26 04:24:26;;;;;;;21.35;13.05;;;;;;;;;;4994882;28;20038;-74
2024/02/26 04:26:51;;;;;;;23.25;12.38;;;;;;;;;;4991745;28;20038;-75
2024/02/26 04:29:16;;;;;;;23.15;14.45;;;;;;;;;;4991627;28;20113;-75
2024/02/26 04:31:42;;;;;;;18.95;12.45;;;;;;;;;;4992425;28;20060;-76
2024/02/26 04:34:08;;;;;;;19.85;12.60;;;;;;;;;;4991570;28;20479;-76
2024/02/26 04:36:33;;;;;;;20.65;13.43;;;;;;;;;;4991425;28;20026;-76
2024/02/26 04:38:58;;;;;;;20.88;13.27;;;;;;;;;;4991417;28;20028;-76
2024/02/26 04:41:23;;;;;;;17.33;11.85;;;;;;;;;;4990639;28;20030;-75
2024/02/26 04:43:48;;;;;;;17.02;11.50;;;;;;;;;;4990882;28;20488;-75
2024/02/26 04:46:13;;;;;;;20.38;11.00;;;;;;;;;;4987750;28;20109;-75
2024/02/26 04:48:39;;;;;;;18.85;11.48;;;;;;;;;;4984751;28;20034;-75
2024/02/26 04:51:04;;;;;;;19.50;12.20;;;;;;;;;;4990384;28;20491;-76
2024/02/26 04:53:29;;;;;;;17.20;11.43;;;;;;;;;;4990403;28;20035;-76
2024/02/26 04:55:54;;;;;;;17.67;11.52;;;;;;;;;;4990919;28;20030;-76
2024/02/26 04:58:20;;;;;;;17.58;11.48;;;;;;;;;;4991065;28;20034;-76
2024/02/26 05:00:45;;;;;;;16.00;10.50;;;;;;;;;;4988651;28;20034;-75
2024/02/26 05:03:15;;;;;;;16.77;10.57;;;;;;;;;;4990830;28;20108;-76
2024/02/26 05:05:40;;;;;;;17.20;12.07;;;;;;;;;;4990976;28;20027;-76
2024/02/26 05:08:06;;;;;;;18.80;11.70;;;;;;;;;;4991038;28;20065;-75
2024/02/26 05:10:31;;;;;;;18.23;11.68;;;;;;;;;;4990799;28;20034;-76
2024/02/26 05:12:57;;;;;;;15.73;10.57;;;;;;;;;;4990464;28;20088;-76
2024/02/26 05:15:22;;;;;;;22.60;11.23;;;;;;;;;;4990955;28;20034;-75
2024/02/26 05:17:47;;;;;;;20.23;11.60;;;;;;;;;;4993306;28;20072;-76
2024/02/26 05:20:13;;;;;;;17.13;11.13;;;;;;;;;;4989029;28;20022;-76
2024/02/26 05:22:38;;;;;;;18.35;11.40;;;;;;;;;;4986715;28;20434;-75
2024/02/26 05:25:03;;;;;;;18.85;11.75;;;;;;;;;;4992345;28;20034;-76
2024/02/26 05:27:29;;;;;;;24.33;14.68;;;;;;;;;;4991235;28;20026;-75
2024/02/26 05:29:54;;;;;;;25.73;15.32;;;;;;;;;;4990081;28;20030;-75
2024/02/26 05:32:19;;;;;;;20.58;13.05;;;;;;;;;;4989768;28;20475;-75
2024/02/26 05:34:44;;;;;;;20.00;12.85;;;;;;;;;;4987415;28;20026;-75
2024/02/26 05:37:10;;;;;;;21.00;13.70;;;;;;;;;;4986463;28;20038;-75
2024/02/26 05:39:35;;;;;;;18.67;12.02;;;;;;;;;;4988027;28;20081;-75
2024/02/26 05:42:00;;;;;;;19.23;12.02;;;;;;;;;;4988845;28;20623;-75
2024/02/26 05:44:26;;;;;;;19.45;12.15;;;;;;;;;;4992620;28;20050;-75
2024/02/26 05:46:51;;;;;;;18.45;11.52;;;;;;;;;;4988351;28;20414;-76
2024/02/26 05:49:16;;;;;;;19.90;11.57;;;;;;;;;;4989447;28;20038;-75
2024/02/26 05:51:41;;;;;;;17.10;10.75;;;;;;;;;;4981346;28;20022;-75
2024/02/26 05:54:08;;;;;;;22.33;12.23;;;;;;;;;;4989918;28;20137;-75
2024/02/26 05:56:33;;;;;;;17.88;11.57;;;;;;;;;;4990018;28;20027;-76
2024/02/26 05:58:58;;;;;;;17.50;11.90;;;;;;;;;;4988525;28;20042;-75
2024/02/26 06:01:24;;;;;;;17.95;11.73;;;;;;;;;;4989931;28;20129;-76
2024/02/26 06:03:49;;;;;;;19.85;13.40;;;;;;;;;;4992287;28;20108;-75
2024/02/26 06:06:15;;;;;;;40.03;22.08;;;;;;;;;;4994387;28;20501;-75
2024/02/26 06:08:40;;;;;;;24.00;15.10;;;;;;;;;;4992999;28;20413;-75
2024/02/26 06:11:06;;;;;;;26.45;15.63;;;;;;;;;;4993891;28;20030;-75
2024/02/26 06:13:32;;;;;;;23.67;14.40;;;;;;;;;;4994116;28;20018;-75
2024/02/26 06:15:57;;;;;;;20.73;13.77;;;;;;;;;;4993818;28;20045;-75
2024/02/26 06:18:22;;;;;;;19.75;13.13;;;;;;;;;;4993080;28;20057;-76
2024/02/26 06:20:48;;;;;;;18.67;11.32;;;;;;;;;;4993510;28;20438;-75
2024/02/26 06:23:13;;;;;;;19.52;12.45;;;;;;;;;;4998169;28;20030;-75
2024/02/26 06:25:38;;;;;;;20.65;12.35;;;;;;;;;;4993704;28;20034;-75
2024/02/26 06:28:03;;;;;;;19.83;11.57;;;;;;;;;;4999940;28;20165;-76
2024/02/26 06:30:29;;;;;;;21.02;11.73;;;;;;;;;;4993057;28;20114;-76
2024/02/26 06:32:54;;;;;;;20.80;13.50;;;;;;;;;;4997242;28;20045;-75
2024/02/26 06:35:19;;;;;;;17.45;10.85;;;;;;;;;;4993551;28;20018;-76
2024/02/26 06:37:44;;;;;;;18.63;12.02;;;;;;;;;;4993689;28;20027;-76
2024/02/26 06:40:09;;;;;;;18.55;12.23;;;;;;;;;;4995901;28;20110;-75
2024/02/26 06:42:35;;;;;;;22.05;13.35;;;;;;;;;;4993199;28;20041;-77
2024/02/26 06:45:00;;;;;;;18.00;11.00;;;;;;;;;;4992887;28;20384;-76
2024/02/26 06:47:25;;;;;;;21.40;13.93;;;;;;;;;;4990708;28;20037;-75
2024/02/26 06:49:51;;;;;;;16.63;11.05;;;;;;;;;;4993351;28;20053;-75
2024/02/26 06:52:16;;;;;;;17.13;11.07;;;;;;;;;;4992859;28;20034;-76
2024/02/26 06:54:41;;;;;;;18.17;11.77;;;;;;;;;;4990537;28;20030;-75
2024/02/26 06:57:06;;;;;;;30.65;17.45;;;;;;;;;;4992577;28;20038;-75
2024/02/26 06:59:31;;;;;;;28.15;17.33;;;;;;;;;;4995034;28;20030;-76
2024/02/26 07:01:57;;;;;;;27.05;16.13;;;;;;;;;;4992635;28;20033;-76
2024/02/26 07:04:22;;;;;;;18.73;12.25;;;;;;;;;;4998085;28;20116;-76
2024/02/26 07:06:48;;;;;;;17.50;11.95;;;;;;;;;;4994353;28;20030;-75
2024/02/26 07:09:13;;;;;;;18.45;12.75;;;;;;;;;;4993265;28;20038;-76
2024/02/26 07:11:41;;;;;;;19.55;11.80;;;;;;;;;;4992531;28;20026;-76
2024/02/26 07:14:06;;;;;;;21.10;11.52;;;;;;;;;;4991576;28;20113;-75
2024/02/26 07:16:32;;;;;;;16.10;10.70;;;;;;;;;;4997129;28;20456;-76
2024/02/26 07:18:57;;;;;;;18.20;10.75;;;;;;;;;;4992817;28;20034;-75
2024/02/26 07:21:22;;;;;;;19.80;11.14;;;;;;;;;;4995340;28;20436;-76
2024/02/26 07:23:47;;;;;;;20.20;12.85;;;;;;;;;;4993974;28;20026;-75
2024/02/26 07:26:12;;;;;;;19.33;12.07;;;;;;;;;;4992230;28;20513;-75
2024/02/26 07:28:37;;;;;;;22.33;13.27;;;;;;;;;;4992629;28;20042;-76
2024/02/26 07:31:03;;;;;;;19.83;11.23;;;;;;;;;;4992229;28;20031;-76
2024/02/26 07:33:28;;;;;;;19.10;12.27;;;;;;;;;;4995550;28;20410;-76
2024/02/26 07:35:53;;;;;;;20.73;12.63;;;;;;;;;;4994881;28;20065;-75
2024/02/26 07:38:19;;;;;;;18.95;13.27;;;;;;;;;;4993034;28;20022;-75
2024/02/26 07:40:44;;;;;;;18.92;11.63;;;;;;;;;;4995100;28;20045;-75
2024/02/26 07:43:09;;;;;;;18.60;12.18;;;;;;;;;;4993219;28;20062;-75
2024/02/26 07:45:36;;;;;;;17.92;12.02;;;;;;;;;;4992678;28;20069;-76
2024/02/26 07:48:01;;;;;;;19.60;12.18;;;;;;;;;;4994422;28;20376;-75
2024/02/26 07:50:26;;;;;;;15.75;11.40;;;;;;;;;;4993766;28;20033;-75
2024/02/26 07:52:52;;;;;;;19.17;12.55;;;;;;;;;;4992049;28;20069;-75
2024/02/26 07:55:18;;;;;;;28.00;19.10;;;;;;;;;;4991033;28;20038;-75
2024/02/26 07:57:44;;;;;;;30.45;20.30;;;;;;;;;;4991837;28;20033;-76
2024/02/26 08:00:09;;;;;;;40.08;24.48;;;;;;;;;;4997899;28;20026;-76
2024/02/26 08:02:34;;;;;;;38.65;24.30;;;;;;;;;;4991962;28;20537;-75
2024/02/26 08:05:00;;;;;;;35.78;22.67;;;;;;;;;;4991820;28;20414;-75
2024/02/26 08:07:25;;;;;;;35.75;21.75;;;;;;;;;;4989951;28;20041;-77
2024/02/26 08:09:50;;;;;;;29.52;19.15;;;;;;;;;;4988175;28;20054;-76
2024/02/26 08:12:16;;;;;;;26.13;15.70;;;;;;;;;;4990884;28;20509;-76
2024/02/26 08:14:42;;;;;;;27.48;16.52;;;;;;;;;;4991856;28;20117;-76
2024/02/26 08:17:08;;;;;;;28.05;18.25;;;;;;;;;;4992163;28;20033;-75
2024/02/26 08:19:35;;;;;;;25.48;16.77;;;;;;;;;;4991934;28;20026;-75
2024/02/26 08:22:00;;;;;;;21.50;14.20;;;;;;;;;;4990051;28;20042;-75
2024/02/26 08:24:26;;;;;;;19.17;13.15;;;;;;;;;;4991735;28;20058;-76
2024/02/26 08:26:51;;;;;;;20.50;12.50;;;;;;;;;;4989286;28;22017;-76
2024/02/26 08:29:16;;;;;;;17.90;11.90;;;;;;;;;;4989880;28;20597;-75
2024/02/26 08:31:41;;;;;;;20.45;12.07;;;;;;;;;;4991411;28;20110;-76
2024/02/26 08:34:06;;;;;;;17.10;10.82;;;;;;;;;;4991566;28;20446;-75
2024/02/26 08:36:33;;;;;;;16.88;9.80;;;;;;;;;;4992991;28;20069;-76
2024/02/26 08:38:58;;;;;;;17.15;11.10;;;;;;;;;;4991521;28;20042;-76
2024/02/26 08:41:23;;;;;;;16.27;10.60;;;;;;;;;;4988603;28;20026;-76
2024/02/26 08:43:48;;;;;;;14.68;10.45;;;;;;;;;;4991172;28;20030;-75
2024/02/26 08:46:13;;;;;;;17.30;10.60;;;;;;;;;;4991666;28;20026;-75
2024/02/26 08:48:39;;;;;;;17.48;11.00;;;;;;;;;;4991328;28;20053;-76
2024/02/26 08:51:07;;;;;;;16.85;10.65;;;;;;;;;;4986692;28;20027;-76
2024/02/26 08:53:33;;;;;;;17.17;11.10;;;;;;;;;;4991358;28;20080;-78
2024/02/26 08:55:58;;;;;;;16.60;11.25;;;;;;;;;;4991499;28;20065;-76
2024/02/26 08:58:23;;;;;;;17.00;10.35;;;;;;;;;;4991401;28;20038;-75
2024/02/26 09:00:48;;;;;;;16.23;10.90;;;;;;;;;;4990448;28;20042;-76
2024/02/26 09:03:13;;;;;;;17.75;10.75;;;;;;;;;;4991257;28;20030;-76
2024/02/26 09:05:39;;;;;;;17.00;10.65;;;;;;;;;;4990839;28;20026;-76
2024/02/26 09:08:04;;;;;;;16.95;10.52;;;;;;;;;;4991175;28;20450;-75
2024/02/26 09:10:29;;;;;;;16.48;9.27;;;;;;;;;;4993006;28;20088;-75
2024/02/26 09:12:55;;;;;;;15.55;8.70;;;;;;;;;;4988196;28;20064;-76
2024/02/26 09:15:20;;;;;;;12.10;8.05;;;;;;;;;;4990358;28;20034;-75
2024/02/26 09:17:45;;;;;;;14.35;8.73;;;;;;;;;;4990863;28;20053;-75
2024/02/26 09:20:11;;;;;;;15.10;9.73;;;;;;;;;;4990823;28;20030;-75
2024/02/26 09:22:37;;;;;;;14.23;8.65;;;;;;;;;;4990533;28;20057;-76
2024/02/26 09:25:03;;;;;;;15.98;9.10;;;;;;;;;;4988407;28;20109;-76
2024/02/26 09:27:30;;;;;;;15.25;9.30;;;;;;;;;;4992802;28;20109;-76
2024/02/26 09:29:55;;;;;;;12.93;8.63;;;;;;;;;;4990445;28;20371;-76
2024/02/26 09:32:21;;;;;;;16.02;9.30;;;;;;;;;;4990505;28;20033;-76
2024/02/26 09:34:46;;;;;;;15.10;8.95;;;;;;;;;;4989028;28;20300;-76
2024/02/26 09:37:12;;;;;;;15.50;9.38;;;;;;;;;;4990735;28;20034;-76
2024/02/26 09:39:38;;;;;;;24.63;15.55;;;;;;;;;;4990315;28;20034;-75
2024/02/26 09:42:04;;;;;;;24.98;15.60;;;;;;;;;;4990174;28;20042;-75
2024/02/26 09:44:30;;;;;;;24.00;16.13;;;;;;;;;;4989195;28;20068;-76
2024/02/26 09:46:56;;;;;;;22.60;15.68;;;;;;;;;;4993876;28;20074;-76
2024/02/26 09:49:23;;;;;;;23.63;14.75;;;;;;;;;;4990278;28;20034;-76
2024/02/26 09:51:49;;;;;;;25.38;15.90;;;;;;;;;;4989882;28;20061;-76
2024/02/26 09:54:15;;;;;;;23.80;13.75;;;;;;;;;;4990360;28;20058;-75
2024/02/26 09:56:40;;;;;;;13.63;9.88;;;;;;;;;;4990540;28;20553;-76
2024/02/26 09:59:12;;;;;;;15.63;8.68;;;;;;;;;;4990398;28;20038;-76
2024/02/26 10:01:38;;;;;;;12.38;7.93;;;;;;;;;;4986411;28;20049;-75
2024/02/26 10:04:04;;;;;;;15.30;8.70;;;;;;;;;;4992001;28;20038;-76
2024/02/26 10:06:29;;;;;;;19.58;11.13;;;;;;;;;;4990359;28;20093;-76
2024/02/26 10:08:54;;;;;;;14.95;9.80;;;;;;;;;;4990234;28;20049;-76
2024/02/26 10:11:20;;;;;;;13.18;9.15;;;;;;;;;;4989824;28;20175;-76
2024/02/26 10:13:45;;;;;;;13.32;8.20;;;;;;;;;;4993686;28;20553;-76
2024/02/26 10:16:10;;;;;;;13.05;8.60;;;;;;;;;;4989324;28;20050;-76
2024/02/26 10:18:45;;;;;;;10.80;6.75;;;;;;;;;;4990429;28;20084;-76
2024/02/26 10:21:10;;;;;;;20.17;13.00;;;;;;;;;;4988535;28;20035;-76
2024/02/26 10:23:35;;;;;;;27.58;16.88;;;;;;;;;;4990021;28;20394;-76
2024/02/26 10:26:01;;;;;;;27.90;15.43;;;;;;;;;;4990224;28;20161;-76
2024/02/26 10:28:29;;;;;;;29.80;15.70;;;;;;;;;;4991579;28;20069;-75
2024/02/26 10:30:54;;;;;;;24.05;14.15;;;;;;;;;;4990418;28;20543;-76
2024/02/26 10:33:19;;;;;;;29.45;16.13;;;;;;;;;;4990222;28;20106;-76
2024/02/26 10:35:45;;;;;;;15.63;9.93;;;;;;;;;;4989844;28;20072;-76
2024/02/26 10:38:10;;;;;;;13.68;8.52;;;;;;;;;;4989889;28;20034;-76
2024/02/26 10:40:36;;;;;;;11.63;8.23;;;;;;;;;;4990047;28;20027;-77
2024/02/26 10:43:01;;;;;;;10.77;6.57;;;;;;;;;;4990219;28;20027;-76
2024/02/26 10:45:27;;;;;;;11.90;6.30;;;;;;;;;;4989987;28;20023;-76
2024/02/26 10:47:52;;;;;;;10.25;6.85;;;;;;;;;;4992651;28;20030;-76
2024/02/26 10:50:18;;;;;;;13.00;6.72;;;;;;;;;;4990957;28;20387;-76
2024/02/26 10:52:43;;;;;;;13.90;7.32;;;;;;;;;;4988547;28;20117;-76
2024/02/26 10:55:13;;;;;;;8.90;5.93;;;;;;;;;;4993421;28;20026;-76
2024/02/26 10:57:39;;;;;;;14.02;7.82;;;;;;;;;;4992021;28;20041;-76
2024/02/26 11:00:05;;;;;;;11.55;7.18;;;;;;;;;;4991722;28;20406;-76
2024/02/26 11:02:32;;;;;;;9.57;6.75;;;;;;;;;;4993217;28;20105;-76
2024/02/26 11:04:58;;;;;;;11.68;6.90;;;;;;;;;;4995895;28;20441;-76
2024/02/26 11:07:24;;;;;;;13.50;7.57;;;;;;;;;;4995770;28;20030;-76
2024/02/26 11:09:52;;;;;;;12.50;7.43;;;;;;;;;;4992864;28;20121;-75
2024/02/26 11:12:17;;;;;;;9.70;6.10;;;;;;;;;;5002008;28;20070;-76
2024/02/26 11:14:45;;;;;;;7.65;5.50;;;;;;;;;;4991582;28;20464;-76
2024/02/26 11:17:10;;;;;;;8.82;5.13;;;;;;;;;;4999763;28;20076;-76
2024/02/26 11:19:37;;;;;;;9.43;5.05;;;;;;;;;;4994834;28;20479;-75
2024/02/26 11:22:03;;;;;;;10.23;5.22;;;;;;;;;;4993137;28;20031;-76
2024/02/26 11:24:28;;;;;;;9.95;4.70;;;;;;;;;;4992763;28;20403;-76
2024/02/26 11:26:58;;;;;;;7.60;4.45;;;;;;;;;;4992802;28;20073;-76
2024/02/26 11:29:25;;;;;;;10.35;6.20;;;;;;;;;;4992837;28;20049;-76
2024/02/26 11:31:50;;;;;;;12.38;7.63;;;;;;;;;;4990298;28;20031;-76
2024/02/26 11:34:16;;;;;;;9.10;6.03;;;;;;;;;;4992637;28;20038;-77
2024/02/26 11:36:42;;;;;;;9.40;4.65;;;;;;;;;;4991469;28;20032;-77
2024/02/26 11:39:07;;;;;;;13.93;7.68;;;;;;;;;;4992889;28;20042;-76
2024/02/26 11:41:33;;;;;;;10.07;6.47;;;;;;;;;;4992342;28;20042;-76
2024/02/26 11:44:00;;;;;;;11.98;7.85;;;;;;;;;;4991565;28;20391;-76
2024/02/26 11:46:30;;;;;;;13.65;8.57;;;;;;;;;;4986030;28;20053;-76
2024/02/26 11:49:00;;;;;;;13.02;8.43;;;;;;;;;;5011366;28;20026;-75
2024/02/26 11:51:27;;;;;;;13.88;8.70;;;;;;;;;;4982135;28;20037;-76
2024/02/26 11:53:53;;;;;;;11.20;6.13;;;;;;;;;;4986101;28;20103;-76
2024/02/26 11:56:19;;;;;;;13.27;8.35;;;;;;;;;;4991052;28;20119;-76
2024/02/26 11:58:44;;;;;;;12.20;7.10;;;;;;;;;;4994140;28;20037;-76
2024/02/26 12:01:28;;;;;;;11.38;7.10;;;;;;;;;;4991379;28;20026;-76
2024/02/26 12:03:56;;;;;;;11.73;7.18;;;;;;;;;;4991981;28;20038;-76
2024/02/26 12:06:21;;;;;;;12.07;7.60;;;;;;;;;;4992835;28;20034;-76
2024/02/26 12:08:47;;;;;;;13.03;6.50;;;;;;;;;;4992060;28;20407;-76
2024/02/26 12:11:16;;;;;;;9.13;5.30;;;;;;;;;;4991512;28;20368;-76
2024/02/26 12:13:41;;;;;;;8.02;4.70;;;;;;;;;;4991941;28;20030;-76
2024/02/26 12:16:08;;;;;;;7.38;4.45;;;;;;;;;;4991111;28;20169;-76
2024/02/26 12:18:34;;;;;;;7.97;4.93;;;;;;;;;;4992085;28;20039;-76
2024/02/26 12:21:00;;;;;;;9.30;4.00;;;;;;;;;;4990040;28;20057;-76
2024/02/26 12:23:27;;;;;;;8.45;5.15;;;;;;;;;;4990507;28;20026;-76
2024/02/26 12:25:52;;;;;;;7.60;3.80;;;;;;;;;;4991584;28;20399;-77
2024/02/26 12:28:17;;;;;;;7.77;3.53;;;;;;;;;;4996485;28;20033;-76
2024/02/26 12:30:42;;;;;;;8.20;4.40;;;;;;;;;;4990010;28;20313;-77
2024/02/26 12:33:08;;;;;;;10.97;5.60;;;;;;;;;;4992412;28;20276;-76
2024/02/26 12:35:34;;;;;;;9.40;4.95;;;;;;;;;;4987728;28;20743;-76
2024/02/26 12:38:00;;;;;;;14.15;7.43;;;;;;;;;;4990629;28;20126;-76
2024/02/26 12:40:26;;;;;;;8.82;4.25;;;;;;;;;;4991433;28;20479;-76
2024/02/26 12:42:53;;;;;;;6.45;3.38;;;;;;;;;;4991047;28;20032;-77
2024/02/26 12:45:20;;;;;;;8.75;4.47;;;;;;;;;;4991920;28;20022;-77
2024/02/26 12:47:46;;;;;;;7.72;3.67;;;;;;;;;;4993281;28;20114;-77
2024/02/26 12:50:11;;;;;;;5.70;3.20;;;;;;;;;;4991136;28;20507;-76
2024/02/26 12:52:42;;;;;;;5.32;2.83;;;;;;;;;;4991063;28;20101;-76
2024/02/26 12:55:08;;;;;;;9.03;2.73;;;;;;;;;;4992436;28;20030;-77
2024/02/26 12:57:35;;;;;;;5.72;2.97;;;;;;;;;;4991254;28;20034;-76
2024/02/26 13:00:01;;;;;;;5.38;2.78;;;;;;;;;;4986960;28;20042;-76
2024/02/26 13:02:26;;;;;;;6.32;2.80;;;;;;;;;;4990911;28;20656;-76
2024/02/26 13:04:52;;;;;;;5.38;2.58;;;;;;;;;;4990891;28;20057;-76
2024/02/26 13:07:17;;;;;;;7.07;3.42;;;;;;;;;;4991417;28;20084;-76
2024/02/26 13:09:43;;;;;;;6.03;2.95;;;;;;;;;;4990868;28;20039;-77
2024/02/26 13:12:08;;;;;;;6.13;3.05;;;;;;;;;;4990804;28;20061;-76
2024/02/26 13:14:34;;;;;;;5.47;2.42;;;;;;;;;;4990991;28;20034;-76
2024/02/26 13:17:00;;;;;;;7.32;3.17;;;;;;;;;;4990956;28;20034;-77
2024/02/26 13:19:25;;;;;;;7.20;3.00;;;;;;;;;;4990932;28;20023;-76
2024/02/26 13:21:50;;;;;;;9.07;4.47;;;;;;;;;;4990365;28;20034;-76
2024/02/26 13:24:16;;;;;;;10.00;4.22;;;;;;;;;;4990737;28;20034;-76
2024/02/26 13:26:41;;;;;;;5.75;3.00;;;;;;;;;;4990804;28;20046;-77
2024/02/26 13:29:06;;;;;;;5.85;3.05;;;;;;;;;;4990456;28;20034;-76
2024/02/26 13:31:38;;;;;;;5.75;2.78;;;;;;;;;;4992755;28;20078;-76
2024/02/26 13:34:03;;;;;;;5.63;2.88;;;;;;;;;;4989053;28;20434;-77
2024/02/26 13:36:28;;;;;;;6.93;3.37;;;;;;;;;;4990381;28;20064;-76
2024/02/26 13:38:54;;;;;;;7.78;3.60;;;;;;;;;;4990575;28;20282;-76
2024/02/26 13:41:20;;;;;;;6.25;2.80;;;;;;;;;;4999363;28;20053;-76
2024/02/26 13:43:46;;;;;;;8.95;2.88;;;;;;;;;;4989654;28;20041;-75
2024/02/26 13:46:12;;;;;;;8.50;2.97;;;;;;;;;;4990619;28;20494;-76
2024/02/26 13:48:37;;;;;;;7.55;3.30;;;;;;;;;;4989843;28;20324;-76
2024/02/26 13:51:03;;;;;;;7.72;3.33;;;;;;;;;;4988433;28;20034;-76
2024/02/26 13:53:28;;;;;;;7.72;3.92;;;;;;;;;;4991424;28;20034;-77
2024/02/26 13:55:53;;;;;;;8.63;4.77;;;;;;;;;;4990155;28;20034;-77
2024/02/26 13:58:22;;;;;;;7.05;3.67;;;;;;;;;;4990578;28;20323;-76
2024/02/26 14:00:48;;;;;;;8.82;3.60;;;;;;;;;;4989904;28;20634;-76
2024/02/26 14:03:13;;;;;;;8.00;3.35;;;;;;;;;;4992052;28;20105;-76
2024/02/26 14:05:38;;;;;;;6.32;3.22;;;;;;;;;;4990407;28;20117;-77
2024/02/26 14:08:03;;;;;;;6.60;2.90;;;;;;;;;;4990407;28;20042;-75
2024/02/26 14:10:30;;;;;;;7.45;2.83;;;;;;;;;;4990206;28;20026;-76
2024/02/26 14:12:55;;;;;;;6.80;3.45;;;;;;;;;;4991082;28;20073;-75
2024/02/26 14:15:20;;;;;;;7.78;3.05;;;;;;;;;;4990268;28;20120;-76